sensor_id;sensor_type;location;lat;lon;timestamp;temperature;humidity
44747;DHT22;30472;49.490;10.972;2023-04-19T00:00:40;6.90;99.90
44747;DHT22;30472;49.490;10.972;2023-04-19T00:03:06;6.90;99.90
44747;DHT22;30472;49.490;10.972;2023-04-19T00:05:32;7.00;99.90
44747;DHT22;30472;49.490;10.972;2023-04-19T00:07:58;7.00;99.90
44747;DHT22;30472;49.490;10.972;2023-04-19T00:10:24;7.00;99.90
44747;DHT22;30472;49.490;10.972;2023-04-19T00:12:50;7.00;99.90
44747;DHT22;30472;49.490;10.972;2023-04-19T00:15:16;7.00;99.90
44747;DHT22;30472;49.490;10.972;2023-04-19T00:17:42;7.00;99.90
44747;DHT22;30472;49.490;10.972;2023-04-19T00:20:08;6.90;99.90
44747;DHT22;30472;49.490;10.972;2023-04-19T00:22:35;6.90;99.90
44747;DHT22;30472;49.490;10.972;2023-04-19T00:25:01;6.80;99.90
44747;DHT22;30472;49.490;10.972;2023-04-19T00:27:27;6.80;99.90
44747;DHT22;30472;49.490;10.972;2023-04-19T00:29:52;6.80;99.90
44747;DHT22;30472;49.490;10.972;2023-04-19T00:32:18;6.80;99.90
44747;DHT22;30472;49.490;10.972;2023-04-19T00:34:44;6.70;99.90
44747;DHT22;30472;49.490;10.972;2023-04-19T00:37:09;6.60;99.90
44747;DHT22;30472;49.490;10.972;2023-04-19T00:39:35;6.50;99.90
44747;DHT22;30472;49.490;10.972;2023-04-19T00:42:01;6.50;99.90
44747;DHT22;30472;49.490;10.972;2023-04-19T00:44:27;6.40;99.90
44747;DHT22;30472;49.490;10.972;2023-04-19T00:46:54;6.30;99.90
44747;DHT22;30472;49.490;10.972;2023-04-19T00:49:21;6.20;99.90
44747;DHT22;30472;49.490;10.972;2023-04-19T00:51:47;6.10;99.90
44747;DHT22;30472;49.490;10.972;2023-04-19T00:54:14;6.00;99.90
44747;DHT22;30472;49.490;10.972;2023-04-19T00:56:40;6.00;99.90
44747;DHT22;30472;49.490;10.972;2023-04-19T00:59:06;5.90;99.90
44747;DHT22;30472;49.490;10.972;2023-04-19T01:01:32;5.80;99.90
44747;DHT22;30472;49.490;10.972;2023-04-19T01:03:59;5.80;99.90
44747;DHT22;30472;49.490;10.972;2023-04-19T01:06:29;5.80;99.90
44747;DHT22;30472;49.490;10.972;2023-04-19T01:08:55;5.90;99.90
44747;DHT22;30472;49.490;10.972;2023-04-19T01:11:22;6.00;99.90
44747;DHT22;30472;49.490;10.972;2023-04-19T01:13:48;6.10;99.90
44747;DHT22;30472;49.490;10.972;2023-04-19T01:16:14;6.20;99.90
44747;DHT22;30472;49.490;10.972;2023-04-19T01:18:39;6.20;99.90
44747;DHT22;30472;49.490;10.972;2023-04-19T01:21:06;6.30;99.90
44747;DHT22;30472;49.490;10.972;2023-04-19T01:23:32;6.40;99.90
44747;DHT22;30472;49.490;10.972;2023-04-19T01:25:58;6.40;99.90
44747;DHT22;30472;49.490;10.972;2023-04-19T01:28:25;6.50;99.90
44747;DHT22;30472;49.490;10.972;2023-04-19T01:30:51;6.50;99.90
44747;DHT22;30472;49.490;10.972;2023-04-19T01:33:19;6.50;99.90
44747;DHT22;30472;49.490;10.972;2023-04-19T01:35:45;6.60;99.90
44747;DHT22;30472;49.490;10.972;2023-04-19T01:38:11;6.60;99.90
44747;DHT22;30472;49.490;10.972;2023-04-19T01:40:36;6.60;99.90
44747;DHT22;30472;49.490;10.972;2023-04-19T01:43:02;6.70;99.90
44747;DHT22;30472;49.490;10.972;2023-04-19T01:45:28;6.70;99.90
44747;DHT22;30472;49.490;10.972;2023-04-19T01:47:53;6.70;99.90
44747;DHT22;30472;49.490;10.972;2023-04-19T01:50:20;6.70;99.90
44747;DHT22;30472;49.490;10.972;2023-04-19T01:52:46;6.70;99.90
44747;DHT22;30472;49.490;10.972;2023-04-19T01:55:11;6.70;99.90
44747;DHT22;30472;49.490;10.972;2023-04-19T01:57:37;6.60;99.90
44747;DHT22;30472;49.490;10.972;2023-04-19T02:00:03;6.60;99.90
44747;DHT22;30472;49.490;10.972;2023-04-19T02:02:29;6.50;99.90
44747;DHT22;30472;49.490;10.972;2023-04-19T02:04:54;6.50;99.90
44747;DHT22;30472;49.490;10.972;2023-04-19T02:07:21;6.40;99.90
44747;DHT22;30472;49.490;10.972;2023-04-19T02:09:47;6.30;99.90
44747;DHT22;30472;49.490;10.972;2023-04-19T02:12:12;6.20;99.90
44747;DHT22;30472;49.490;10.972;2023-04-19T02:14:38;6.20;99.90
44747;DHT22;30472;49.490;10.972;2023-04-19T02:17:03;6.10;99.90
44747;DHT22;30472;49.490;10.972;2023-04-19T02:19:29;6.00;99.90
44747;DHT22;30472;49.490;10.972;2023-04-19T02:21:54;6.00;99.90
44747;DHT22;30472;49.490;10.972;2023-04-19T02:24:23;6.00;99.90
44747;DHT22;30472;49.490;10.972;2023-04-19T02:26:49;6.00;99.90
44747;DHT22;30472;49.490;10.972;2023-04-19T02:29:14;6.00;99.90
44747;DHT22;30472;49.490;10.972;2023-04-19T02:31:41;5.90;99.90
44747;DHT22;30472;49.490;10.972;2023-04-19T02:34:07;5.90;99.90
44747;DHT22;30472;49.490;10.972;2023-04-19T02:36:32;5.80;99.90
44747;DHT22;30472;49.490;10.972;2023-04-19T02:38:58;5.80;99.90
44747;DHT22;30472;49.490;10.972;2023-04-19T02:41:24;5.90;99.90
44747;DHT22;30472;49.490;10.972;2023-04-19T02:43:49;5.80;99.90
44747;DHT22;30472;49.490;10.972;2023-04-19T02:46:15;5.90;99.90
44747;DHT22;30472;49.490;10.972;2023-04-19T02:48:41;5.90;99.90
44747;DHT22;30472;49.490;10.972;2023-04-19T02:51:06;5.80;99.90
44747;DHT22;30472;49.490;10.972;2023-04-19T02:53:32;5.70;99.90
44747;DHT22;30472;49.490;10.972;2023-04-19T02:55:58;5.70;99.90
44747;DHT22;30472;49.490;10.972;2023-04-19T02:58:23;5.60;99.90
44747;DHT22;30472;49.490;10.972;2023-04-19T03:00:50;5.60;99.90
44747;DHT22;30472;49.490;10.972;2023-04-19T03:03:16;5.60;99.90
44747;DHT22;30472;49.490;10.972;2023-04-19T03:05:41;5.70;99.90
44747;DHT22;30472;49.490;10.972;2023-04-19T03:08:07;5.70;99.90
44747;DHT22;30472;49.490;10.972;2023-04-19T03:10:35;5.60;99.90
44747;DHT22;30472;49.490;10.972;2023-04-19T03:13:00;5.60;99.90
44747;DHT22;30472;49.490;10.972;2023-04-19T03:15:26;5.50;99.90
44747;DHT22;30472;49.490;10.972;2023-04-19T03:17:52;5.50;99.90
44747;DHT22;30472;49.490;10.972;2023-04-19T03:20:17;5.40;99.90
44747;DHT22;30472;49.490;10.972;2023-04-19T03:22:43;5.40;99.90
44747;DHT22;30472;49.490;10.972;2023-04-19T03:25:09;5.30;99.90
44747;DHT22;30472;49.490;10.972;2023-04-19T03:27:36;5.30;99.90
44747;DHT22;30472;49.490;10.972;2023-04-19T03:30:02;5.20;99.90
44747;DHT22;30472;49.490;10.972;2023-04-19T03:32:28;5.20;99.90
44747;DHT22;30472;49.490;10.972;2023-04-19T03:34:54;5.20;99.90
44747;DHT22;30472;49.490;10.972;2023-04-19T03:37:19;5.20;99.90
44747;DHT22;30472;49.490;10.972;2023-04-19T03:39:45;5.10;99.90
44747;DHT22;30472;49.490;10.972;2023-04-19T03:42:11;5.00;99.90
44747;DHT22;30472;49.490;10.972;2023-04-19T03:44:36;5.10;99.90
44747;DHT22;30472;49.490;10.972;2023-04-19T03:47:02;5.10;99.90
44747;DHT22;30472;49.490;10.972;2023-04-19T03:49:28;5.00;99.90
44747;DHT22;30472;49.490;10.972;2023-04-19T03:51:53;4.90;99.90
44747;DHT22;30472;49.490;10.972;2023-04-19T03:54:19;4.90;99.90
44747;DHT22;30472;49.490;10.972;2023-04-19T03:56:45;4.80;99.90
44747;DHT22;30472;49.490;10.972;2023-04-19T03:59:10;4.80;99.90
44747;DHT22;30472;49.490;10.972;2023-04-19T04:01:36;4.60;99.90
44747;DHT22;30472;49.490;10.972;2023-04-19T04:04:07;4.70;99.90
44747;DHT22;30472;49.490;10.972;2023-04-19T04:06:33;4.70;99.90
44747;DHT22;30472;49.490;10.972;2023-04-19T04:08:59;4.70;99.90
44747;DHT22;30472;49.490;10.972;2023-04-19T04:11:25;4.70;99.90
44747;DHT22;30472;49.490;10.972;2023-04-19T04:13:50;4.70;99.90
44747;DHT22;30472;49.490;10.972;2023-04-19T04:16:16;4.80;99.90
44747;DHT22;30472;49.490;10.972;2023-04-19T04:18:42;4.80;99.90
44747;DHT22;30472;49.490;10.972;2023-04-19T04:21:07;4.80;99.90
44747;DHT22;30472;49.490;10.972;2023-04-19T04:23:33;4.80;99.90
44747;DHT22;30472;49.490;10.972;2023-04-19T04:26:00;4.90;99.90
44747;DHT22;30472;49.490;10.972;2023-04-19T04:28:26;4.90;99.90
44747;DHT22;30472;49.490;10.972;2023-04-19T04:30:54;5.00;99.90
44747;DHT22;30472;49.490;10.972;2023-04-19T04:33:23;5.10;99.90
44747;DHT22;30472;49.490;10.972;2023-04-19T04:35:50;5.20;99.90
44747;DHT22;30472;49.490;10.972;2023-04-19T04:38:15;5.20;99.90
44747;DHT22;30472;49.490;10.972;2023-04-19T04:40:41;5.40;99.90
44747;DHT22;30472;49.490;10.972;2023-04-19T04:43:07;5.50;99.90
44747;DHT22;30472;49.490;10.972;2023-04-19T04:45:32;5.60;99.90
44747;DHT22;30472;49.490;10.972;2023-04-19T04:47:58;5.60;99.90
44747;DHT22;30472;49.490;10.972;2023-04-19T04:50:24;5.70;99.90
44747;DHT22;30472;49.490;10.972;2023-04-19T04:52:50;5.70;99.90
44747;DHT22;30472;49.490;10.972;2023-04-19T04:55:18;5.80;99.90
44747;DHT22;30472;49.490;10.972;2023-04-19T04:57:43;5.80;99.90
44747;DHT22;30472;49.490;10.972;2023-04-19T05:00:09;5.90;99.90
44747;DHT22;30472;49.490;10.972;2023-04-19T05:02:35;6.00;99.90
44747;DHT22;30472;49.490;10.972;2023-04-19T05:05:01;6.00;99.90
44747;DHT22;30472;49.490;10.972;2023-04-19T05:07:27;6.10;99.90
44747;DHT22;30472;49.490;10.972;2023-04-19T05:09:53;6.10;99.90
44747;DHT22;30472;49.490;10.972;2023-04-19T05:12:18;6.20;99.90
44747;DHT22;30472;49.490;10.972;2023-04-19T05:14:44;6.30;99.90
44747;DHT22;30472;49.490;10.972;2023-04-19T05:17:09;6.30;99.90
44747;DHT22;30472;49.490;10.972;2023-04-19T05:19:35;6.40;99.90
44747;DHT22;30472;49.490;10.972;2023-04-19T05:22:00;6.40;99.90
44747;DHT22;30472;49.490;10.972;2023-04-19T05:24:26;6.50;99.90
44747;DHT22;30472;49.490;10.972;2023-04-19T05:26:52;6.60;99.90
44747;DHT22;30472;49.490;10.972;2023-04-19T05:29:17;6.70;99.90
44747;DHT22;30472;49.490;10.972;2023-04-19T05:31:43;6.70;99.90
44747;DHT22;30472;49.490;10.972;2023-04-19T05:34:08;6.80;99.90
44747;DHT22;30472;49.490;10.972;2023-04-19T05:36:34;6.80;99.90
44747;DHT22;30472;49.490;10.972;2023-04-19T05:38:59;6.90;99.90
44747;DHT22;30472;49.490;10.972;2023-04-19T05:41:25;6.90;99.90
44747;DHT22;30472;49.490;10.972;2023-04-19T05:43:51;7.00;99.90
44747;DHT22;30472;49.490;10.972;2023-04-19T05:46:16;7.10;99.90
44747;DHT22;30472;49.490;10.972;2023-04-19T05:48:42;7.20;99.90
44747;DHT22;30472;49.490;10.972;2023-04-19T05:51:07;7.20;99.90
44747;DHT22;30472;49.490;10.972;2023-04-19T05:53:33;7.30;99.90
44747;DHT22;30472;49.490;10.972;2023-04-19T05:55:59;7.30;99.90
44747;DHT22;30472;49.490;10.972;2023-04-19T05:58:24;7.30;99.90
44747;DHT22;30472;49.490;10.972;2023-04-19T06:00:50;7.40;99.90
44747;DHT22;30472;49.490;10.972;2023-04-19T06:03:16;7.50;99.90
44747;DHT22;30472;49.490;10.972;2023-04-19T06:05:41;7.50;99.90
44747;DHT22;30472;49.490;10.972;2023-04-19T06:08:07;7.60;99.90
44747;DHT22;30472;49.490;10.972;2023-04-19T06:10:34;7.70;99.90
44747;DHT22;30472;49.490;10.972;2023-04-19T06:13:00;7.70;99.90
44747;DHT22;30472;49.490;10.972;2023-04-19T06:15:26;7.70;99.90
44747;DHT22;30472;49.490;10.972;2023-04-19T06:17:52;7.80;99.90
44747;DHT22;30472;49.490;10.972;2023-04-19T06:20:17;7.80;99.90
44747;DHT22;30472;49.490;10.972;2023-04-19T06:22:45;7.90;99.90
44747;DHT22;30472;49.490;10.972;2023-04-19T06:25:10;8.00;99.90
44747;DHT22;30472;49.490;10.972;2023-04-19T06:27:36;8.00;99.90
44747;DHT22;30472;49.490;10.972;2023-04-19T06:30:02;8.10;99.90
44747;DHT22;30472;49.490;10.972;2023-04-19T06:32:28;8.10;99.90
44747;DHT22;30472;49.490;10.972;2023-04-19T06:34:54;8.20;99.90
44747;DHT22;30472;49.490;10.972;2023-04-19T06:37:19;8.20;99.90
44747;DHT22;30472;49.490;10.972;2023-04-19T06:39:45;8.20;99.90
44747;DHT22;30472;49.490;10.972;2023-04-19T06:42:10;8.20;99.90
44747;DHT22;30472;49.490;10.972;2023-04-19T06:44:36;8.30;99.90
44747;DHT22;30472;49.490;10.972;2023-04-19T06:47:02;8.30;99.90
44747;DHT22;30472;49.490;10.972;2023-04-19T06:49:28;8.30;99.90
44747;DHT22;30472;49.490;10.972;2023-04-19T06:51:53;8.40;99.90
44747;DHT22;30472;49.490;10.972;2023-04-19T06:54:19;8.40;99.90
44747;DHT22;30472;49.490;10.972;2023-04-19T06:56:46;8.50;99.90
44747;DHT22;30472;49.490;10.972;2023-04-19T06:59:13;8.50;99.90
44747;DHT22;30472;49.490;10.972;2023-04-19T07:01:41;8.50;99.90
44747;DHT22;30472;49.490;10.972;2023-04-19T07:04:07;8.60;99.90
44747;DHT22;30472;49.490;10.972;2023-04-19T07:06:34;8.60;99.90
44747;DHT22;30472;49.490;10.972;2023-04-19T07:09:00;8.70;99.90
44747;DHT22;30472;49.490;10.972;2023-04-19T07:11:25;8.70;99.90
44747;DHT22;30472;49.490;10.972;2023-04-19T07:13:51;8.80;99.90
44747;DHT22;30472;49.490;10.972;2023-04-19T07:16:17;8.80;99.90
44747;DHT22;30472;49.490;10.972;2023-04-19T07:18:42;8.90;99.90
44747;DHT22;30472;49.490;10.972;2023-04-19T07:21:09;9.00;99.90
44747;DHT22;30472;49.490;10.972;2023-04-19T07:23:34;9.20;99.90
44747;DHT22;30472;49.490;10.972;2023-04-19T07:26:00;9.20;99.90
44747;DHT22;30472;49.490;10.972;2023-04-19T07:28:28;9.20;99.90
44747;DHT22;30472;49.490;10.972;2023-04-19T07:30:53;9.20;99.90
44747;DHT22;30472;49.490;10.972;2023-04-19T07:33:19;9.20;99.90
44747;DHT22;30472;49.490;10.972;2023-04-19T07:35:44;9.20;99.90
44747;DHT22;30472;49.490;10.972;2023-04-19T07:38:10;9.20;99.90
44747;DHT22;30472;49.490;10.972;2023-04-19T07:40:36;9.30;99.90
44747;DHT22;30472;49.490;10.972;2023-04-19T07:43:01;9.20;99.90
44747;DHT22;30472;49.490;10.972;2023-04-19T07:45:29;9.30;99.90
44747;DHT22;30472;49.490;10.972;2023-04-19T07:47:55;9.30;99.90
44747;DHT22;30472;49.490;10.972;2023-04-19T07:50:20;9.20;99.90
44747;DHT22;30472;49.490;10.972;2023-04-19T07:52:46;9.20;99.90
44747;DHT22;30472;49.490;10.972;2023-04-19T07:55:12;9.10;99.90
44747;DHT22;30472;49.490;10.972;2023-04-19T07:57:37;9.10;99.90
44747;DHT22;30472;49.490;10.972;2023-04-19T08:00:03;9.20;99.90
44747;DHT22;30472;49.490;10.972;2023-04-19T08:02:29;9.20;99.90
44747;DHT22;30472;49.490;10.972;2023-04-19T08:04:55;9.10;99.90
44747;DHT22;30472;49.490;10.972;2023-04-19T08:07:22;9.00;99.90
44747;DHT22;30472;49.490;10.972;2023-04-19T08:09:48;9.00;99.90
44747;DHT22;30472;49.490;10.972;2023-04-19T08:12:14;9.00;99.90
44747;DHT22;30472;49.490;10.972;2023-04-19T08:14:40;9.10;99.90
44747;DHT22;30472;49.490;10.972;2023-04-19T08:17:06;9.10;99.90
44747;DHT22;30472;49.490;10.972;2023-04-19T08:19:32;9.00;99.90
44747;DHT22;30472;49.490;10.972;2023-04-19T08:21:58;9.00;99.90
44747;DHT22;30472;49.490;10.972;2023-04-19T08:24:23;9.00;99.90
44747;DHT22;30472;49.490;10.972;2023-04-19T08:26:49;9.00;99.90
44747;DHT22;30472;49.490;10.972;2023-04-19T08:29:21;8.90;99.90
44747;DHT22;30472;49.490;10.972;2023-04-19T08:31:47;8.90;99.90
44747;DHT22;30472;49.490;10.972;2023-04-19T08:34:13;8.90;99.90
44747;DHT22;30472;49.490;10.972;2023-04-19T08:36:38;8.90;99.90
44747;DHT22;30472;49.490;10.972;2023-04-19T08:39:04;9.00;99.90
44747;DHT22;30472;49.490;10.972;2023-04-19T08:41:30;9.00;99.90
44747;DHT22;30472;49.490;10.972;2023-04-19T08:43:56;9.00;99.90
44747;DHT22;30472;49.490;10.972;2023-04-19T08:46:23;9.00;99.90
44747;DHT22;30472;49.490;10.972;2023-04-19T08:48:49;9.10;99.90
44747;DHT22;30472;49.490;10.972;2023-04-19T08:51:16;9.10;99.90
44747;DHT22;30472;49.490;10.972;2023-04-19T08:53:43;9.00;99.90
44747;DHT22;30472;49.490;10.972;2023-04-19T08:56:09;8.70;99.90
44747;DHT22;30472;49.490;10.972;2023-04-19T08:58:36;8.70;99.90
44747;DHT22;30472;49.490;10.972;2023-04-19T09:01:03;8.60;99.90
44747;DHT22;30472;49.490;10.972;2023-04-19T09:03:29;8.60;99.90
44747;DHT22;30472;49.490;10.972;2023-04-19T09:05:56;8.70;99.90
44747;DHT22;30472;49.490;10.972;2023-04-19T09:08:25;8.60;99.90
44747;DHT22;30472;49.490;10.972;2023-04-19T09:13:19;8.70;99.90
44747;DHT22;30472;49.490;10.972;2023-04-19T09:15:45;8.80;99.90
44747;DHT22;30472;49.490;10.972;2023-04-19T09:18:11;8.90;99.90
44747;DHT22;30472;49.490;10.972;2023-04-19T09:20:37;9.00;99.90
44747;DHT22;30472;49.490;10.972;2023-04-19T09:23:05;9.10;99.90
44747;DHT22;30472;49.490;10.972;2023-04-19T09:25:31;9.10;99.90
44747;DHT22;30472;49.490;10.972;2023-04-19T09:28:13;9.00;99.90
44747;DHT22;30472;49.490;10.972;2023-04-19T09:30:40;9.10;99.90
44747;DHT22;30472;49.490;10.972;2023-04-19T09:33:06;9.10;99.90
44747;DHT22;30472;49.490;10.972;2023-04-19T09:35:47;9.20;99.90
44747;DHT22;30472;49.490;10.972;2023-04-19T09:38:14;9.20;99.90
44747;DHT22;30472;49.490;10.972;2023-04-19T09:40:41;9.20;99.90
44747;DHT22;30472;49.490;10.972;2023-04-19T09:43:07;9.20;99.90
44747;DHT22;30472;49.490;10.972;2023-04-19T09:45:43;9.40;99.90
44747;DHT22;30472;49.490;10.972;2023-04-19T09:48:10;9.60;99.90
44747;DHT22;30472;49.490;10.972;2023-04-19T09:50:50;9.70;99.90
44747;DHT22;30472;49.490;10.972;2023-04-19T09:53:16;10.10;99.90
44747;DHT22;30472;49.490;10.972;2023-04-19T09:55:43;10.20;99.90
44747;DHT22;30472;49.490;10.972;2023-04-19T09:58:10;10.10;99.90
44747;DHT22;30472;49.490;10.972;2023-04-19T10:00:36;10.10;99.90
44747;DHT22;30472;49.490;10.972;2023-04-19T10:03:03;10.00;99.90
44747;DHT22;30472;49.490;10.972;2023-04-19T10:05:31;10.00;99.90
44747;DHT22;30472;49.490;10.972;2023-04-19T10:07:57;10.10;99.90
44747;DHT22;30472;49.490;10.972;2023-04-19T10:10:26;10.10;99.90
44747;DHT22;30472;49.490;10.972;2023-04-19T10:12:56;10.70;99.90
44747;DHT22;30472;49.490;10.972;2023-04-19T10:15:24;11.80;99.90
44747;DHT22;30472;49.490;10.972;2023-04-19T10:17:51;12.20;99.90
44747;DHT22;30472;49.490;10.972;2023-04-19T10:20:33;12.90;99.90
44747;DHT22;30472;49.490;10.972;2023-04-19T10:23:06;12.40;99.90
44747;DHT22;30472;49.490;10.972;2023-04-19T10:25:31;11.90;99.90
44747;DHT22;30472;49.490;10.972;2023-04-19T10:27:57;11.70;99.90
44747;DHT22;30472;49.490;10.972;2023-04-19T10:30:24;11.40;99.90
44747;DHT22;30472;49.490;10.972;2023-04-19T10:32:56;11.20;99.90
44747;DHT22;30472;49.490;10.972;2023-04-19T10:35:27;12.00;99.90
44747;DHT22;30472;49.490;10.972;2023-04-19T10:38:06;12.00;99.90
44747;DHT22;30472;49.490;10.972;2023-04-19T10:43:19;12.30;99.90
44747;DHT22;30472;49.490;10.972;2023-04-19T10:45:46;12.20;99.90
44747;DHT22;30472;49.490;10.972;2023-04-19T10:48:51;11.80;99.90
44747;DHT22;30472;49.490;10.972;2023-04-19T10:51:22;11.70;99.90
44747;DHT22;30472;49.490;10.972;2023-04-19T10:54:00;11.90;99.90
44747;DHT22;30472;49.490;10.972;2023-04-19T11:04:12;12.10;99.90
44747;DHT22;30472;49.490;10.972;2023-04-19T11:06:57;11.80;99.90
44747;DHT22;30472;49.490;10.972;2023-04-19T11:09:28;12.70;99.90
44747;DHT22;30472;49.490;10.972;2023-04-19T11:12:03;12.60;99.90
44747;DHT22;30472;49.490;10.972;2023-04-19T11:14:31;12.50;99.90
44747;DHT22;30472;49.490;10.972;2023-04-19T11:16:58;13.40;99.90
44747;DHT22;30472;49.490;10.972;2023-04-19T11:19:23;13.60;99.90
44747;DHT22;30472;49.490;10.972;2023-04-19T11:21:49;13.20;99.90
44747;DHT22;30472;49.490;10.972;2023-04-19T11:24:15;13.20;99.90
44747;DHT22;30472;49.490;10.972;2023-04-19T11:26:43;12.90;99.90
44747;DHT22;30472;49.490;10.972;2023-04-19T11:29:10;12.80;99.90
44747;DHT22;30472;49.490;10.972;2023-04-19T11:31:36;12.40;99.90
44747;DHT22;30472;49.490;10.972;2023-04-19T11:34:02;12.80;99.90
44747;DHT22;30472;49.490;10.972;2023-04-19T11:36:28;13.70;99.90
44747;DHT22;30472;49.490;10.972;2023-04-19T11:38:53;13.00;99.90
44747;DHT22;30472;49.490;10.972;2023-04-19T11:41:19;13.40;99.90
44747;DHT22;30472;49.490;10.972;2023-04-19T11:43:45;13.80;99.90
44747;DHT22;30472;49.490;10.972;2023-04-19T11:46:12;14.60;99.90
44747;DHT22;30472;49.490;10.972;2023-04-19T11:48:51;14.90;99.90
44747;DHT22;30472;49.490;10.972;2023-04-19T11:51:17;14.00;99.90
44747;DHT22;30472;49.490;10.972;2023-04-19T11:53:43;14.10;99.90
44747;DHT22;30472;49.490;10.972;2023-04-19T11:56:08;13.90;99.90
44747;DHT22;30472;49.490;10.972;2023-04-19T11:58:42;13.20;99.90
44747;DHT22;30472;49.490;10.972;2023-04-19T12:01:18;13.00;99.90
44747;DHT22;30472;49.490;10.972;2023-04-19T12:03:48;13.30;99.90
44747;DHT22;30472;49.490;10.972;2023-04-19T12:06:22;14.30;99.90
44747;DHT22;30472;49.490;10.972;2023-04-19T12:08:49;14.90;99.90
44747;DHT22;30472;49.490;10.972;2023-04-19T12:11:17;15.40;99.90
44747;DHT22;30472;49.490;10.972;2023-04-19T12:16:33;15.70;99.90
44747;DHT22;30472;49.490;10.972;2023-04-19T12:19:13;14.60;99.90
44747;DHT22;30472;49.490;10.972;2023-04-19T12:21:39;15.10;99.90
44747;DHT22;30472;49.490;10.972;2023-04-19T12:24:05;14.90;99.90
44747;DHT22;30472;49.490;10.972;2023-04-19T12:26:32;15.20;99.90
44747;DHT22;30472;49.490;10.972;2023-04-19T12:28:59;15.10;99.90
44747;DHT22;30472;49.490;10.972;2023-04-19T12:31:24;15.40;99.90
44747;DHT22;30472;49.490;10.972;2023-04-19T12:33:50;15.40;99.90
44747;DHT22;30472;49.490;10.972;2023-04-19T12:36:16;15.60;99.90
44747;DHT22;30472;49.490;10.972;2023-04-19T12:38:42;15.70;99.90
44747;DHT22;30472;49.490;10.972;2023-04-19T12:41:07;15.60;99.90
44747;DHT22;30472;49.490;10.972;2023-04-19T12:43:33;15.40;99.90
44747;DHT22;30472;49.490;10.972;2023-04-19T12:45:59;15.20;99.90
44747;DHT22;30472;49.490;10.972;2023-04-19T12:48:25;15.00;99.90
44747;DHT22;30472;49.490;10.972;2023-04-19T12:50:51;15.00;99.90
44747;DHT22;30472;49.490;10.972;2023-04-19T12:53:17;14.90;99.90
44747;DHT22;30472;49.490;10.972;2023-04-19T12:55:43;15.20;99.90
44747;DHT22;30472;49.490;10.972;2023-04-19T12:58:18;15.20;99.90
44747;DHT22;30472;49.490;10.972;2023-04-19T13:00:45;15.20;99.90
44747;DHT22;30472;49.490;10.972;2023-04-19T13:03:11;15.50;99.90
44747;DHT22;30472;49.490;10.972;2023-04-19T13:05:37;15.30;99.90
44747;DHT22;30472;49.490;10.972;2023-04-19T13:08:03;15.50;99.90
44747;DHT22;30472;49.490;10.972;2023-04-19T13:10:29;15.40;99.90
44747;DHT22;30472;49.490;10.972;2023-04-19T13:12:55;15.00;99.90
44747;DHT22;30472;49.490;10.972;2023-04-19T13:15:21;15.00;99.90
44747;DHT22;30472;49.490;10.972;2023-04-19T13:17:46;15.30;99.90
44747;DHT22;30472;49.490;10.972;2023-04-19T13:20:12;14.90;99.90
44747;DHT22;30472;49.490;10.972;2023-04-19T13:22:38;15.20;99.90
44747;DHT22;30472;49.490;10.972;2023-04-19T13:25:04;15.30;99.90
44747;DHT22;30472;49.490;10.972;2023-04-19T13:27:30;15.10;99.90
44747;DHT22;30472;49.490;10.972;2023-04-19T13:29:55;15.10;99.90
44747;DHT22;30472;49.490;10.972;2023-04-19T13:32:21;15.20;99.90
44747;DHT22;30472;49.490;10.972;2023-04-19T13:34:48;15.00;99.90
44747;DHT22;30472;49.490;10.972;2023-04-19T13:37:14;15.20;99.90
44747;DHT22;30472;49.490;10.972;2023-04-19T13:39:39;15.20;99.90
44747;DHT22;30472;49.490;10.972;2023-04-19T13:42:05;15.50;99.90
44747;DHT22;30472;49.490;10.972;2023-04-19T13:44:31;15.20;99.90
44747;DHT22;30472;49.490;10.972;2023-04-19T13:46:57;15.30;99.90
44747;DHT22;30472;49.490;10.972;2023-04-19T13:49:23;15.10;99.90
44747;DHT22;30472;49.490;10.972;2023-04-19T13:51:48;15.00;99.90
44747;DHT22;30472;49.490;10.972;2023-04-19T13:54:14;14.80;99.90
44747;DHT22;30472;49.490;10.972;2023-04-19T13:56:42;14.90;99.90
44747;DHT22;30472;49.490;10.972;2023-04-19T13:59:07;15.20;99.90
44747;DHT22;30472;49.490;10.972;2023-04-19T14:01:34;15.50;99.90
44747;DHT22;30472;49.490;10.972;2023-04-19T14:04:00;15.70;99.90
44747;DHT22;30472;49.490;10.972;2023-04-19T14:06:25;14.80;99.90
44747;DHT22;30472;49.490;10.972;2023-04-19T14:08:52;14.10;99.90
44747;DHT22;30472;49.490;10.972;2023-04-19T14:11:17;13.80;99.90
44747;DHT22;30472;49.490;10.972;2023-04-19T14:13:43;14.20;99.90
44747;DHT22;30472;49.490;10.972;2023-04-19T14:16:09;14.20;99.90
44747;DHT22;30472;49.490;10.972;2023-04-19T14:18:35;13.70;99.90
44747;DHT22;30472;49.490;10.972;2023-04-19T14:21:00;13.20;99.90
44747;DHT22;30472;49.490;10.972;2023-04-19T14:23:26;12.90;99.90
44747;DHT22;30472;49.490;10.972;2023-04-19T14:25:52;13.30;99.90
44747;DHT22;30472;49.490;10.972;2023-04-19T14:28:18;13.50;99.90
44747;DHT22;30472;49.490;10.972;2023-04-19T14:30:43;13.60;99.90
44747;DHT22;30472;49.490;10.972;2023-04-19T14:33:09;13.80;99.90
44747;DHT22;30472;49.490;10.972;2023-04-19T14:35:35;13.60;99.90
44747;DHT22;30472;49.490;10.972;2023-04-19T14:38:00;13.30;99.90
44747;DHT22;30472;49.490;10.972;2023-04-19T14:40:26;13.50;99.90
44747;DHT22;30472;49.490;10.972;2023-04-19T14:42:52;13.60;99.90
44747;DHT22;30472;49.490;10.972;2023-04-19T14:45:17;13.60;99.90
44747;DHT22;30472;49.490;10.972;2023-04-19T14:47:43;13.60;99.90
44747;DHT22;30472;49.490;10.972;2023-04-19T14:50:09;13.90;99.90
44747;DHT22;30472;49.490;10.972;2023-04-19T14:52:34;14.00;99.90
44747;DHT22;30472;49.490;10.972;2023-04-19T14:55:00;13.70;99.90
44747;DHT22;30472;49.490;10.972;2023-04-19T14:57:26;13.20;99.90
44747;DHT22;30472;49.490;10.972;2023-04-19T14:59:56;12.70;99.90
44747;DHT22;30472;49.490;10.972;2023-04-19T15:02:23;12.60;99.90
44747;DHT22;30472;49.490;10.972;2023-04-19T15:04:49;12.50;99.90
44747;DHT22;30472;49.490;10.972;2023-04-19T15:07:14;12.40;99.90
44747;DHT22;30472;49.490;10.972;2023-04-19T15:09:40;12.50;99.90
44747;DHT22;30472;49.490;10.972;2023-04-19T15:12:06;12.40;99.90
44747;DHT22;30472;49.490;10.972;2023-04-19T15:14:31;12.00;99.90
44747;DHT22;30472;49.490;10.972;2023-04-19T15:16:57;12.00;99.90
44747;DHT22;30472;49.490;10.972;2023-04-19T15:19:23;11.90;99.90
44747;DHT22;30472;49.490;10.972;2023-04-19T15:21:48;11.90;99.90
44747;DHT22;30472;49.490;10.972;2023-04-19T15:24:14;12.10;99.90
44747;DHT22;30472;49.490;10.972;2023-04-19T15:26:39;12.60;99.90
44747;DHT22;30472;49.490;10.972;2023-04-19T15:29:05;12.30;99.90
44747;DHT22;30472;49.490;10.972;2023-04-19T15:31:31;12.20;99.90
44747;DHT22;30472;49.490;10.972;2023-04-19T15:33:59;11.90;99.90
44747;DHT22;30472;49.490;10.972;2023-04-19T15:36:26;11.70;99.90